航空気象通報

ウインドサーファーのための航空気象通報による風予報です。

2/25-2/26の航空気象通報(国内、海外)

2012年02月25日 21時48分17秒 | TAF

羽田空港
TAF RJTT 250838Z 2509/2612 01012KT 9999 FEW015 BKN020
日本時間25日18時-26日06時:010度から12ノットの風

静岡空港
TAF RJNS 250842Z 2509/2612 26014KT 9999 SCT030 BKN050
      BECMG 2514/2516 36008KT
      BECMG 2606/2609 26010KT
日本時間25日18-23時:260度から14ノットの風
23時-26日15時:360度から8ノットの風
15-18時:風が変化
18-21時:260度から10ノットの風

福岡空港
TAF RJFF 250845Z 2509/2612 01006KT 9999 FEW015 BKN025
      TEMPO 2509/2512 4500 -SHRA BR
日本時間25日18時-25日21時:010度から6ノットの風

但し、25日18-21時の間:ときどき

那覇空港
TAF ROAH 250844Z 2509/2612 01015KT 8000 -RA FEW008 SCT015 BKN030
      TEMPO 2510/2513 4000 RA
日本時間25日18時-26日21時:010度から15ノットの風

(番外編)石垣空港
TAF ROIG 250848Z 2509/2612 01014KT 9999 SCT015 BKN040
日本時間25日18時-26日21時:010度から14ノットの風

マウイのカフルイ空港
TAF PHOG 251120Z 2512/2612 12006KT P6SM SCT050 BKN200
     FM252200 04012KT P6SM SCT035 BKN200
     FM260300 30006KT P6SM SCT030 BKN200
     FM260800 12006KT P6SM SCT050 BKN200
      AMD LTD TO WX VIS AND WIND TIL 251600
ハワイ時間25日02-12時:120度から6ノットの風
12-17時:040度から12ノットの風
17時-26日02時:120度から6ノットの風

サイパン空港
TAF PGSN 251120Z 2512/2612 06009KT P6SM VCSH SCT018
     FM252300 08013KT P6SM VCSH SCT020 SCT050
     FM260900 07009KT P6SM VCSH SCT018
マリアナ時間25日22時-26日09時:060度から9ノットの風
09-19時:080度から13ノットの風
19-22時:070度から9ノットの風

ジャンル:
お天気
コメント   この記事についてブログを書く
« 2/24-2/25の航空気象通報(国... | トップ | 2/26-2/27の航空気象通報(国... »
最近の画像もっと見る

コメントを投稿

ブログ作成者から承認されるまでコメントは反映されません。

TAF」カテゴリの最新記事